Time;durP1;ratioP1;P1;durP2;ratioP2;P2;SDS_P1;SDS_P2;PMS_P1;PMS_P2;Temp;Humidity;BMP_temperature;BMP_pressure;BME280_temperature;BME280_humidity;BME280_pressure;Samples;Min_cycle;Max_cycle;Signal;HPM_P1;HPM_P2
2021/12/15 00:01:58;;;;;;;6.00;5.22;;;11.10;99.90;;;;;;5106774;28;20134;-67
2021/12/15 00:04:25;;;;;;;8.48;5.72;;;11.10;99.90;;;;;;5100229;28;20080;-65
2021/12/15 00:06:52;;;;;;;7.00;5.68;;;11.10;99.90;;;;;;5099336;28;20131;-65
2021/12/15 00:09:19;;;;;;;6.95;5.65;;;11.10;99.90;;;;;;5105238;28;20056;-64
2021/12/15 00:11:46;;;;;;;5.07;4.32;;;11.10;99.90;;;;;;5102472;28;20087;-65
2021/12/15 00:14:18;;;;;;;5.95;4.55;;;11.00;99.90;;;;;;5109470;28;20047;-64
2021/12/15 00:16:46;;;;;;;8.35;5.53;;;11.00;99.90;;;;;;5110581;28;20131;-65
2021/12/15 00:19:13;;;;;;;8.05;5.10;;;11.00;99.90;;;;;;5110219;28;20130;-64
2021/12/15 00:21:40;;;;;;;5.85;4.95;;;11.00;99.90;;;;;;5099393;28;20055;-67
2021/12/15 00:24:07;;;;;;;6.53;5.15;;;11.00;99.90;;;;;;5108326;28;20047;-65
2021/12/15 00:26:34;;;;;;;8.65;6.05;;;11.00;99.90;;;;;;5092331;28;20052;-65
2021/12/15 00:29:03;;;;;;;7.93;5.90;;;11.00;99.90;;;;;;5087696;28;20394;-65
2021/12/15 00:31:32;;;;;;;6.97;5.05;;;11.00;99.90;;;;;;5093764;28;20495;-65
2021/12/15 00:34:00;;;;;;;7.68;5.88;;;11.00;99.90;;;;;;5082416;28;20050;-64
2021/12/15 00:36:27;;;;;;;7.47;5.32;;;10.90;99.90;;;;;;5112246;28;20126;-64
2021/12/15 00:38:54;;;;;;;7.80;5.72;;;10.90;99.90;;;;;;5105690;28;20499;-67
2021/12/15 00:41:21;;;;;;;9.25;5.75;;;10.80;99.90;;;;;;5075638;28;20044;-67
2021/12/15 00:43:48;;;;;;;7.43;6.22;;;10.80;99.90;;;;;;5112330;28;20051;-67
2021/12/15 00:46:15;;;;;;;7.35;5.75;;;10.70;99.90;;;;;;5088757;28;20052;-67
2021/12/15 00:48:42;;;;;;;6.50;5.78;;;10.70;99.90;;;;;;5075764;28;20055;-65
2021/12/15 00:51:10;;;;;;;9.70;7.18;;;10.80;99.90;;;;;;5107121;28;20492;-64
2021/12/15 00:53:37;;;;;;;9.38;5.85;;;10.80;99.90;;;;;;5092048;28;20052;-64
2021/12/15 00:56:04;;;;;;;12.27;7.00;;;10.80;99.90;;;;;;5095622;28;20095;-66
2021/12/15 00:58:31;;;;;;;8.63;6.38;;;10.80;99.90;;;;;;5111712;28;20088;-66
2021/12/15 01:00:59;;;;;;;8.20;6.57;;;10.80;99.90;;;;;;5113195;27;20044;-67
2021/12/15 01:03:26;;;;;;;9.98;6.38;;;10.80;99.90;;;;;;5113589;28;20425;-66
2021/12/15 01:05:59;;;;;;;8.13;5.97;;;10.90;99.90;;;;;;5113301;27;20092;-66
2021/12/15 01:08:27;;;;;;;9.05;6.43;;;10.80;99.90;;;;;;5112515;28;20577;-67
2021/12/15 01:21:44;;;;;;;8.40;5.80;;;10.80;99.90;;;;;;5113150;28;20118;-64
2021/12/15 01:24:11;;;;;;;7.10;6.35;;;10.80;99.90;;;;;;5111947;28;20126;-64
2021/12/15 01:26:38;;;;;;;7.00;5.10;;;10.80;99.90;;;;;;5111950;28;20047;-64
2021/12/15 01:29:05;;;;;;;8.02;5.72;;;10.90;99.90;;;;;;5112792;28;20137;-64
2021/12/15 01:31:32;;;;;;;9.60;5.43;;;10.90;99.90;;;;;;5095376;28;20052;-65
2021/12/15 01:33:59;;;;;;;6.07;4.78;;;11.00;99.90;;;;;;5094020;28;20430;-66
2021/12/15 01:36:26;;;;;;;7.75;4.80;;;11.00;99.90;;;;;;5091961;28;20052;-65
2021/12/15 01:38:53;;;;;;;6.15;5.25;;;11.00;99.90;;;;;;5091650;28;20048;-65
2021/12/15 01:41:22;;;;;;;7.65;4.13;;;11.00;99.90;;;;;;5089981;28;20126;-65
2021/12/15 01:46:55;;;;;;;6.40;4.78;;;11.00;99.90;;;;;;5112213;28;20152;-64
2021/12/15 01:49:29;;;;;;;7.45;4.75;;;11.00;99.90;;;;;;5098010;28;20082;-65
2021/12/15 01:52:00;;;;;;;10.75;5.03;;;11.10;99.90;;;;;;5094989;28;20367;-65
2021/12/15 01:54:28;;;;;;;7.75;5.18;;;11.00;99.90;;;;;;5074144;28;20479;-65
2021/12/15 01:56:55;;;;;;;5.75;4.28;;;11.00;99.90;;;;;;5110819;28;20055;-65
2021/12/15 01:59:23;;;;;;;6.03;3.95;;;11.00;99.90;;;;;;5111225;28;20495;-65
2021/12/15 02:01:50;;;;;;;5.63;3.78;;;11.00;99.90;;;;;;5110788;28;20048;-65
2021/12/15 02:04:19;;;;;;;5.65;3.60;;;11.00;99.90;;;;;;5110606;28;20402;-64
2021/12/15 02:06:46;;;;;;;4.85;3.60;;;11.00;99.90;;;;;;5110432;28;20471;-65
2021/12/15 02:09:21;;;;;;;4.78;3.33;;;11.00;99.90;;;;;;5093893;28;20092;-65
2021/12/15 02:11:48;;;;;;;6.43;3.58;;;11.10;99.90;;;;;;5111356;28;20079;-65
2021/12/15 02:14:15;;;;;;;6.68;3.67;;;11.10;99.90;;;;;;5110275;28;20065;-65
2021/12/15 02:16:42;;;;;;;5.65;3.50;;;11.10;99.90;;;;;;5107621;28;20507;-65
2021/12/15 02:19:10;;;;;;;6.82;3.67;;;11.10;99.90;;;;;;5111347;28;20402;-64
2021/12/15 02:21:38;;;;;;;5.65;3.30;;;11.00;99.90;;;;;;5110675;28;20048;-65
2021/12/15 02:24:05;;;;;;;6.28;4.20;;;11.10;99.90;;;;;;5110546;28;20468;-65
2021/12/15 02:26:37;;;;;;;6.03;3.85;;;11.00;99.90;;;;;;5111458;28;20048;-65
2021/12/15 02:29:06;;;;;;;6.10;4.45;;;11.10;99.90;;;;;;5112325;28;20507;-66
2021/12/15 02:39:30;;;;;;;7.18;3.67;;;11.10;99.90;;;;;;5095200;28;20455;-65
2021/12/15 02:41:57;;;;;;;9.55;4.97;;;11.10;99.90;;;;;;5093155;28;20130;-65
2021/12/15 02:44:24;;;;;;;5.07;3.35;;;11.10;99.90;;;;;;5110033;28;20052;-65
2021/12/15 02:46:52;;;;;;;7.78;4.40;;;11.10;99.90;;;;;;5109940;28;20040;-66
2021/12/15 02:49:22;;;;;;;8.15;4.10;;;11.20;99.90;;;;;;5097857;28;20129;-66
2021/12/15 02:51:50;;;;;;;4.15;3.25;;;11.20;99.90;;;;;;5108676;28;20122;-65
2021/12/15 02:54:18;;;;;;;6.57;3.42;;;11.20;99.90;;;;;;5111618;27;20420;-65
2021/12/15 02:56:46;;;;;;;4.38;3.10;;;11.20;99.90;;;;;;5111748;28;20047;-65
2021/12/15 02:59:16;;;;;;;7.13;3.55;;;11.20;99.90;;;;;;5093579;28;20138;-65
2021/12/15 03:03:07;;;;;;;5.70;3.03;;;11.20;99.90;;;;;;5073148;28;20474;-65
2021/12/15 03:04:48;;;;;;;4.05;2.70;;;11.20;99.90;;;;;;5081205;28;20052;-64
2021/12/15 03:15:50;;;;;;;6.50;2.85;;;11.40;99.90;;;;;;5095187;28;20390;-64
2021/12/15 03:18:19;;;;;;;4.93;2.55;;;11.40;99.90;;;;;;5092168;28;20039;-66
2021/12/15 03:20:51;;;;;;;5.68;2.83;;;11.40;99.90;;;;;;5107184;28;20055;-65
2021/12/15 03:23:23;;;;;;;5.15;2.30;;;11.40;99.90;;;;;;5109505;28;20047;-64
2021/12/15 03:25:50;;;;;;;4.85;2.17;;;11.40;99.90;;;;;;5110535;28;20166;-65
2021/12/15 03:34:12;;;;;;;4.78;2.40;;;11.50;99.90;;;;;;5110725;28;20147;-64
2021/12/15 03:39:25;;;;;;;4.00;2.45;;;11.50;99.90;;;;;;5109035;28;20131;-65
2021/12/15 03:41:58;;;;;;;4.72;2.63;;;11.50;99.90;;;;;;5092297;28;20562;-65
2021/12/15 03:44:25;;;;;;;3.67;2.35;;;11.50;99.90;;;;;;5093320;28;20051;-65
2021/12/15 03:46:52;;;;;;;3.45;2.08;;;11.50;99.90;;;;;;5105765;28;20065;-65
2021/12/15 03:49:20;;;;;;;3.58;2.08;;;11.50;99.90;;;;;;5105176;28;20043;-64
2021/12/15 03:51:47;;;;;;;3.25;2.63;;;11.60;99.90;;;;;;5108908;28;20467;-64
2021/12/15 03:54:14;;;;;;;5.05;2.30;;;11.50;99.90;;;;;;5092045;28;20040;-64
2021/12/15 03:56:42;;;;;;;3.78;2.60;;;11.60;99.90;;;;;;5111073;28;20411;-64
2021/12/15 03:59:09;;;;;;;3.72;2.30;;;11.60;99.90;;;;;;5108900;28;20071;-65
2021/12/15 04:01:36;;;;;;;5.60;2.75;;;11.60;99.90;;;;;;5110100;28;20561;-64
2021/12/15 04:04:03;;;;;;;7.03;2.28;;;11.60;99.90;;;;;;5091386;28;20055;-65
2021/12/15 04:06:36;;;;;;;5.63;2.53;;;11.60;99.90;;;;;;5091562;28;20044;-67
2021/12/15 04:09:12;;;;;;;5.72;2.55;;;11.60;99.90;;;;;;5108658;28;20039;-64
2021/12/15 04:11:39;;;;;;;4.05;2.30;;;11.60;99.90;;;;;;5076944;28;20051;-63
2021/12/15 04:14:10;;;;;;;6.60;2.38;;;11.60;99.90;;;;;;5075110;28;20048;-64
2021/12/15 04:19:07;;;;;;;3.22;2.35;;;11.60;99.90;;;;;;5108985;28;20051;-64
2021/12/15 04:21:34;;;;;;;4.78;2.60;;;11.60;99.90;;;;;;5109768;28;20048;-64
2021/12/15 04:24:02;;;;;;;3.25;1.95;;;11.60;99.90;;;;;;5101858;28;20079;-65
2021/12/15 04:26:29;;;;;;;5.38;2.15;;;11.50;99.90;;;;;;5095257;28;20458;-64
2021/12/15 04:28:55;;;;;;;3.95;2.03;;;11.60;99.90;;;;;;5108197;28;20127;-66
2021/12/15 04:31:27;;;;;;;6.45;2.30;;;11.60;99.90;;;;;;5104237;28;20068;-64
2021/12/15 04:33:56;;;;;;;4.88;2.30;;;11.60;99.90;;;;;;5109829;28;20130;-63
2021/12/15 04:36:26;;;;;;;5.85;2.35;;;11.60;99.90;;;;;;5099297;28;20046;-64
2021/12/15 04:38:53;;;;;;;4.55;2.08;;;11.60;99.90;;;;;;5102878;28;20039;-64
2021/12/15 04:41:20;;;;;;;3.03;1.90;;;11.60;99.90;;;;;;5089840;28;20047;-64
2021/12/15 04:44:09;;;;;;;5.72;1.92;;;11.70;99.90;;;;;;5091502;28;20372;-64
2021/12/15 04:46:41;;;;;;;6.90;2.72;;;11.60;99.90;;;;;;5092654;28;20429;-65
2021/12/15 04:49:10;;;;;;;3.30;1.90;;;11.70;99.90;;;;;;5093080;28;20040;-64
2021/12/15 04:51:37;;;;;;;5.82;2.00;;;11.70;99.90;;;;;;5109095;28;20520;-64
2021/12/15 04:54:04;;;;;;;4.50;2.00;;;11.70;99.90;;;;;;5108889;28;20060;-64
2021/12/15 04:56:31;;;;;;;3.15;1.83;;;11.70;99.90;;;;;;5089786;28;20048;-64
2021/12/15 04:58:58;;;;;;;5.93;2.70;;;11.70;99.90;;;;;;5091911;28;20122;-64
2021/12/15 05:01:25;;;;;;;6.57;2.08;;;11.70;99.90;;;;;;5109544;28;20054;-64
2021/12/15 05:03:52;;;;;;;4.38;2.20;;;11.80;99.90;;;;;;5109714;28;20099;-64
2021/12/15 05:06:21;;;;;;;4.95;2.08;;;11.70;99.90;;;;;;5109515;28;20487;-64
2021/12/15 05:08:48;;;;;;;5.70;2.53;;;11.70;99.90;;;;;;5107852;28;20056;-63
2021/12/15 05:11:19;;;;;;;4.20;2.25;;;11.70;99.90;;;;;;5108837;28;20067;-64
2021/12/15 05:13:46;;;;;;;6.65;2.47;;;11.80;99.90;;;;;;5091666;28;20059;-64
2021/12/15 05:16:15;;;;;;;6.38;2.38;;;11.80;99.90;;;;;;5108034;28;20140;-64
2021/12/15 05:18:43;;;;;;;;;;;11.70;99.90;;;;;;5112505;28;20523;-64
2021/12/15 05:21:11;;;;;;;6.38;2.65;;;11.80;99.90;;;;;;5113328;28;20045;-66
2021/12/15 05:23:39;;;;;;;5.07;2.65;;;11.80;99.90;;;;;;5112378;28;20047;-64
2021/12/15 05:26:06;;;;;;;4.53;2.42;;;11.80;99.90;;;;;;5094794;28;20044;-64
2021/12/15 05:28:33;;;;;;;6.03;2.40;;;11.80;99.90;;;;;;5112201;28;20102;-64
2021/12/15 05:31:00;;;;;;;4.13;2.70;;;11.80;99.90;;;;;;5112733;28;20139;-64
2021/12/15 05:33:27;;;;;;;7.22;3.35;;;11.90;99.90;;;;;;5112043;28;20394;-64
2021/12/15 05:35:56;;;;;;;5.35;2.40;;;11.90;99.90;;;;;;5111242;28;20043;-64
2021/12/15 05:38:24;;;;;;;7.03;3.43;;;11.80;99.90;;;;;;5092893;28;20517;-64
2021/12/15 05:40:51;;;;;;;6.82;2.60;;;11.90;99.90;;;;;;5112208;28;20425;-65
2021/12/15 05:43:18;;;;;;;4.35;2.35;;;11.90;99.90;;;;;;5112170;28;20098;-64
2021/12/15 05:45:45;;;;;;;7.50;2.75;;;11.80;99.90;;;;;;5106580;28;20048;-64
2021/12/15 05:48:13;;;;;;;6.20;3.28;;;11.80;99.90;;;;;;5105480;28;20113;-66
2021/12/15 05:50:40;;;;;;;7.10;2.80;;;11.80;99.90;;;;;;5112309;28;20118;-64
2021/12/15 05:53:07;;;;;;;6.88;3.60;;;11.80;99.90;;;;;;5112393;28;20070;-65
2021/12/15 05:55:34;;;;;;;4.75;3.00;;;11.80;99.90;;;;;;5109380;28;20459;-64
2021/12/15 05:58:02;;;;;;;5.90;3.28;;;11.80;99.90;;;;;;5110008;28;20039;-67
2021/12/15 06:00:31;;;;;;;6.47;3.13;;;11.80;99.90;;;;;;5110964;28;20050;-67
2021/12/15 06:02:58;;;;;;;6.68;3.42;;;11.80;99.90;;;;;;5091321;28;20059;-63
2021/12/15 06:05:25;;;;;;;10.07;3.63;;;11.80;99.90;;;;;;5074172;28;20083;-63
2021/12/15 06:07:52;;;;;;;5.68;3.80;;;11.80;99.90;;;;;;5059765;28;20040;-64
2021/12/15 06:10:24;;;;;;;8.02;3.30;;;11.70;99.90;;;;;;5090775;28;20082;-64
2021/12/15 06:12:51;;;;;;;7.38;3.30;;;11.70;99.90;;;;;;5104373;28;20050;-64
2021/12/15 06:15:22;;;;;;;7.15;3.33;;;11.70;99.90;;;;;;5111878;28;20376;-63
2021/12/15 06:17:50;;;;;;;6.70;3.40;;;11.70;99.90;;;;;;5111696;28;20478;-71
2021/12/15 06:20:17;;;;;;;6.50;3.10;;;11.70;99.90;;;;;;5093920;28;20055;-66
2021/12/15 06:22:46;;;;;;;8.60;4.03;;;11.70;99.90;;;;;;5111139;28;20113;-64
2021/12/15 06:25:14;;;;;;;5.55;3.28;;;11.70;99.90;;;;;;5093591;28;20123;-64
2021/12/15 06:27:41;;;;;;;8.05;3.50;;;11.70;99.90;;;;;;5109872;28;20058;-64
2021/12/15 06:30:08;;;;;;;9.63;3.90;;;11.70;99.90;;;;;;5093832;28;20122;-64
2021/12/15 06:32:35;;;;;;;6.57;3.92;;;11.70;99.90;;;;;;5094393;28;20360;-64
2021/12/15 06:35:04;;;;;;;5.15;3.20;;;11.80;99.90;;;;;;5111699;28;20043;-65
2021/12/15 06:37:30;;;;;;;7.78;3.80;;;11.80;99.90;;;;;;5112924;27;20154;-64
2021/12/15 06:39:57;;;;;;;5.50;3.35;;;11.80;99.90;;;;;;5111005;28;20036;-70
2021/12/15 06:42:24;;;;;;;8.50;3.17;;;11.80;99.90;;;;;;5111952;28;20054;-64
2021/12/15 06:44:52;;;;;;;5.75;3.13;;;11.80;99.90;;;;;;5095572;28;20635;-64
2021/12/15 06:58:41;;;;;;;31.48;26.10;;;12.00;99.90;;;;;;5105124;28;20073;-67
2021/12/15 07:01:09;;;;;;;203.95;183.07;;;12.00;99.90;;;;;;5109548;28;20050;-69
2021/12/15 07:03:36;;;;;;;71.70;65.35;;;12.00;99.90;;;;;;5088984;28;20056;-63
2021/12/15 07:06:05;;;;;;;8.23;6.15;;;12.00;99.90;;;;;;5107062;28;20824;-66
2021/12/15 07:08:32;;;;;;;10.30;4.22;;;12.00;99.90;;;;;;5107805;28;21926;-65
2021/12/15 07:11:00;;;;;;;5.97;3.47;;;12.00;99.90;;;;;;5109554;28;20048;-64
2021/12/15 07:13:27;;;;;;;126.55;90.72;;;12.00;99.90;;;;;;5104562;28;20087;-66
2021/12/15 07:16:00;;;;;;;56.38;39.92;;;12.00;99.90;;;;;;5092333;28;20047;-63
2021/12/15 07:21:37;;;;;;;6.47;3.90;;;12.10;99.90;;;;;;5035200;28;20092;-66
2021/12/15 07:24:06;;;;;;;5.72;3.15;;;12.10;99.90;;;;;;5094301;28;20055;-67
2021/12/15 07:26:34;;;;;;;4.50;2.58;;;12.10;99.90;;;;;;5093973;28;20140;-67
2021/12/15 07:29:01;;;;;;;4.88;2.53;;;12.00;99.90;;;;;;5073476;28;20048;-64
2021/12/15 07:31:28;;;;;;;9.93;4.00;;;12.00;99.90;;;;;;5090922;28;20051;-64
2021/12/15 07:33:55;;;;;;;7.25;3.08;;;12.00;99.90;;;;;;5104337;28;20120;-62
2021/12/15 07:36:22;;;;;;;7.03;3.00;;;12.00;99.90;;;;;;5097402;28;20091;-71
2021/12/15 07:38:55;;;;;;;4.68;2.80;;;12.00;99.90;;;;;;5086903;28;20120;-71
2021/12/15 07:41:35;;;;;;;6.07;3.05;;;12.00;99.90;;;;;;5102829;28;20122;-72
2021/12/15 07:44:03;;;;;;;8.25;2.97;;;12.00;99.90;;;;;;5100965;28;20158;-73
2021/12/15 07:46:49;;;;;;;8.07;3.50;;;12.00;99.90;;;;;;5110796;28;20389;-71
2021/12/15 07:49:18;;;;;;;6.07;2.75;;;12.00;99.90;;;;;;5108436;28;20131;-71
2021/12/15 07:51:47;;;;;;;7.47;3.25;;;12.00;99.90;;;;;;5109319;28;20048;-71
2021/12/15 07:54:16;;;;;;;7.03;2.93;;;12.00;99.90;;;;;;5102358;28;20071;-74
2021/12/15 07:56:43;;;;;;;5.18;2.83;;;12.00;99.90;;;;;;5085956;28;20360;-74
2021/12/15 07:59:10;;;;;;;7.90;3.45;;;12.10;99.90;;;;;;5100925;28;20058;-70
2021/12/15 08:01:37;;;;;;;7.32;3.58;;;12.10;99.90;;;;;;5086825;28;20036;-69
2021/12/15 08:04:04;;;;;;;5.90;3.00;;;12.10;99.90;;;;;;5100276;28;20048;-70
2021/12/15 08:06:32;;;;;;;6.38;3.75;;;12.10;99.90;;;;;;5072189;28;20401;-70
2021/12/15 08:09:04;;;;;;;5.95;2.90;;;12.10;99.90;;;;;;5088400;28;20055;-72
2021/12/15 08:11:31;;;;;;;6.63;2.85;;;12.10;99.90;;;;;;5108081;28;20127;-69
2021/12/15 08:13:58;;;;;;;8.23;3.17;;;12.10;99.90;;;;;;5107725;28;20077;-70
2021/12/15 08:16:25;;;;;;;8.35;3.17;;;12.10;99.90;;;;;;5104133;28;20040;-70
2021/12/15 08:18:53;;;;;;;8.43;3.42;;;12.10;99.90;;;;;;5101795;28;20047;-68
2021/12/15 08:21:24;;;;;;;10.18;3.40;;;12.10;99.90;;;;;;5097244;28;20062;-65
2021/12/15 08:23:51;;;;;;;5.85;3.88;;;12.10;99.90;;;;;;5101043;28;20040;-69
2021/12/15 08:26:19;;;;;;;9.25;3.45;;;12.10;99.90;;;;;;5106546;28;20055;-70
2021/12/15 08:28:46;;;;;;;6.43;3.75;;;12.10;99.90;;;;;;5109035;28;20051;-69
2021/12/15 08:31:13;;;;;;;8.50;3.67;;;12.10;99.90;;;;;;5101283;28;21582;-70
2021/12/15 08:33:40;;;;;;;5.90;3.40;;;12.10;99.90;;;;;;5092245;28;20059;-70
2021/12/15 08:36:09;;;;;;;8.90;3.78;;;12.10;99.90;;;;;;5091720;28;20296;-68
2021/12/15 08:38:38;;;;;;;14.75;8.85;;;12.10;99.90;;;;;;5089667;28;20052;-68
2021/12/15 08:41:11;;;;;;;9.13;4.97;;;12.20;99.90;;;;;;5100639;28;20064;-68
2021/12/15 08:43:38;;;;;;;110.13;98.55;;;12.10;99.90;;;;;;5108909;28;20418;-67
2021/12/15 08:46:13;;;;;;;622.65;484.88;;;12.20;99.90;;;;;;5107735;28;20080;-67
2021/12/15 08:48:41;;;;;;;50.60;38.50;;;12.20;99.90;;;;;;5092260;28;20409;-67
2021/12/15 08:51:09;;;;;;;18.65;11.95;;;12.20;99.90;;;;;;5104511;28;20070;-68
2021/12/15 08:53:37;;;;;;;11.43;6.70;;;12.20;99.90;;;;;;5112425;28;20505;-68
2021/12/15 08:56:04;;;;;;;6.95;5.30;;;12.20;99.90;;;;;;5095438;28;20041;-70
2021/12/15 08:58:31;;;;;;;7.00;3.63;;;12.30;99.90;;;;;;5096164;28;20447;-67
2021/12/15 09:00:58;;;;;;;7.32;3.65;;;12.20;99.90;;;;;;5111798;28;20105;-67
2021/12/15 09:03:27;;;;;;;6.55;3.90;;;12.20;99.90;;;;;;5090608;28;20058;-69
2021/12/15 09:05:55;;;;;;;8.48;4.60;;;12.20;99.90;;;;;;5072648;28;20079;-68
2021/12/15 09:08:23;;;;;;;8.80;4.00;;;12.20;99.90;;;;;;5091631;28;20291;-69
2021/12/15 09:10:55;;;;;;;7.65;4.68;;;12.20;99.90;;;;;;5096515;28;20193;-68
2021/12/15 09:13:24;;;;;;;8.27;3.92;;;12.20;99.90;;;;;;5110606;28;20374;-68
2021/12/15 09:15:51;;;;;;;7.18;3.95;;;12.20;99.90;;;;;;5095235;28;20080;-67
2021/12/15 09:18:18;;;;;;;9.60;4.70;;;12.20;99.90;;;;;;5105385;28;20047;-68
2021/12/15 09:20:45;;;;;;;6.25;4.68;;;12.20;99.90;;;;;;5113659;28;20052;-64
2021/12/15 09:23:14;;;;;;;12.50;7.85;;;12.20;99.90;;;;;;5113276;28;20410;-64
2021/12/15 09:25:41;;;;;;;8.90;5.22;;;12.20;99.90;;;;;;5095217;28;20075;-64
2021/12/15 09:28:08;;;;;;;6.38;5.18;;;12.20;99.90;;;;;;5113358;27;20051;-63
2021/12/15 09:30:35;;;;;;;10.23;4.40;;;12.20;99.90;;;;;;5111047;28;20141;-68
2021/12/15 09:33:02;;;;;;;7.25;5.30;;;12.20;99.90;;;;;;5111047;28;20098;-71
2021/12/15 09:35:31;;;;;;;293.25;260.98;;;12.20;99.90;;;;;;5110704;28;20039;-65
2021/12/15 09:37:59;;;;;;;20.05;15.95;;;12.30;99.90;;;;;;5111661;28;20047;-66
2021/12/15 09:40:26;;;;;;;14.23;7.38;;;12.30;99.90;;;;;;5106353;28;20394;-69
2021/12/15 09:42:53;;;;;;;9.35;5.35;;;12.30;99.90;;;;;;5106263;28;20078;-65
2021/12/15 09:56:48;;;;;;;8.10;4.57;;;12.40;99.90;;;;;;5082441;28;20044;-65
2021/12/15 10:04:42;;;;;;;11.50;4.68;;;12.50;99.90;;;;;;5075980;28;20040;-65
2021/12/15 10:18:36;;;;;;;14.55;5.20;;;12.60;99.90;;;;;;5111496;28;20047;-64
2021/12/15 10:21:03;;;;;;;8.48;4.63;;;12.70;99.90;;;;;;5095823;28;20047;-65
2021/12/15 10:23:41;;;;;;;8.02;4.70;;;12.70;99.90;;;;;;5072419;28;20491;-64
2021/12/15 10:26:08;;;;;;;7.70;5.15;;;12.70;99.90;;;;;;5110306;28;20092;-64
2021/12/15 10:28:37;;;;;;;8.70;4.22;;;12.70;99.90;;;;;;5093037;28;20126;-64
2021/12/15 10:31:09;;;;;;;7.57;4.87;;;12.80;99.90;;;;;;5111357;28;20388;-65
2021/12/15 10:33:58;;;;;;;8.15;4.53;;;12.80;99.90;;;;;;5110215;28;20086;-64
2021/12/15 10:36:27;;;;;;;9.32;4.72;;;12.80;99.90;;;;;;5111204;27;20403;-65
2021/12/15 10:38:56;;;;;;;6.43;4.15;;;12.90;99.90;;;;;;5073341;28;20063;-64
2021/12/15 10:41:25;;;;;;;9.38;4.20;;;12.90;99.90;;;;;;5075459;28;20088;-65
2021/12/15 10:43:58;;;;;;;9.60;3.83;;;12.90;99.90;;;;;;5110262;28;20171;-64
2021/12/15 10:46:33;;;;;;;7.55;3.45;;;12.90;99.90;;;;;;5083843;28;20143;-65
2021/12/15 10:49:05;;;;;;;8.05;3.88;;;12.90;99.90;;;;;;5112158;28;20067;-64
2021/12/15 10:51:39;;;;;;;10.80;3.90;;;12.90;99.90;;;;;;5110136;28;20487;-65
2021/12/15 10:54:28;;;;;;;8.23;5.10;;;12.90;99.90;;;;;;5110228;28;20043;-64
2021/12/15 10:57:11;;;;;;;6.30;3.83;;;12.90;99.90;;;;;;5110659;28;20052;-64
2021/12/15 10:59:40;;;;;;;7.13;3.90;;;12.90;99.80;;;;;;5094067;28;20138;-65
2021/12/15 11:02:32;;;;;;;8.27;4.28;;;13.00;99.90;;;;;;5108629;28;20055;-65
2021/12/15 11:05:09;;;;;;;5.05;3.60;;;13.00;99.90;;;;;;5088873;28;20131;-65
2021/12/15 11:07:38;;;;;;;8.35;4.95;;;13.00;99.90;;;;;;5105667;28;20635;-65
2021/12/15 11:10:08;;;;;;;5.38;3.38;;;13.00;99.90;;;;;;5073289;28;20127;-65
2021/12/15 11:12:40;;;;;;;12.32;4.88;;;13.00;99.70;;;;;;5097350;28;20441;-65
2021/12/15 11:15:15;;;;;;;9.30;3.47;;;13.00;99.90;;;;;;5110963;28;20082;-65
2021/12/15 11:17:44;;;;;;;7.47;3.90;;;13.10;99.90;;;;;;5111331;28;20151;-65
2021/12/15 11:20:41;;;;;;;8.32;4.40;;;13.10;99.30;;;;;;5093523;28;20179;-65
2021/12/15 11:23:15;;;;;;;6.03;3.42;;;13.10;99.50;;;;;;5102453;28;20040;-66
2021/12/15 11:25:51;;;;;;;7.78;4.28;;;13.10;99.90;;;;;;5108985;28;20550;-65
2021/12/15 11:28:34;;;;;;;8.50;4.18;;;13.20;99.90;;;;;;5089874;28;20347;-65
2021/12/15 11:31:08;;;;;;;8.77;4.28;;;13.20;99.20;;;;;;5090403;28;20055;-66
2021/12/15 11:33:39;;;;;;;8.73;4.22;;;13.20;99.90;;;;;;5089643;28;20047;-65
2021/12/15 11:36:12;;;;;;;7.80;4.45;;;13.30;99.40;;;;;;5093623;28;20043;-65
2021/12/15 11:38:44;;;;;;;9.27;4.00;;;13.30;99.80;;;;;;5067103;28;20048;-65
2021/12/15 11:41:22;;;;;;;9.02;4.07;;;13.30;99.90;;;;;;5105851;28;20117;-65
2021/12/15 11:44:12;;;;;;;13.40;3.90;;;13.30;99.90;;;;;;5109023;28;20048;-65
2021/12/15 11:46:40;;;;;;;7.18;3.92;;;13.30;99.10;;;;;;5070175;28;20135;-65
2021/12/15 11:49:29;;;;;;;10.82;4.20;;;13.20;99.90;;;;;;5092972;28;20112;-65
2021/12/15 11:52:01;;;;;;;12.85;7.30;;;13.30;99.90;;;;;;5108606;28;20051;-65
2021/12/15 11:54:28;;;;;;;8.95;4.15;;;13.30;99.40;;;;;;5108961;28;20087;-65
2021/12/15 11:57:15;;;;;;;7.00;4.13;;;13.30;99.10;;;;;;5110329;28;20208;-65
2021/12/15 11:59:44;;;;;;;12.88;4.95;;;13.30;99.90;;;;;;5110389;28;20546;-65
2021/12/15 12:02:26;;;;;;;8.43;4.18;;;13.30;99.80;;;;;;5107876;28;20803;-65
2021/12/15 12:05:03;;;;;;;7.05;3.38;;;13.30;99.70;;;;;;5091142;28;20043;-67
2021/12/15 12:07:42;;;;;;;408.60;298.95;;;13.40;99.90;;;;;;5110333;28;20055;-63
2021/12/15 12:10:17;;;;;;;35.33;28.70;;;13.40;99.90;;;;;;5107324;28;20074;-65
2021/12/15 12:12:51;;;;;;;14.65;9.02;;;13.40;99.90;;;;;;5103340;28;20298;-65
2021/12/15 12:15:20;;;;;;;9.50;5.28;;;13.40;99.70;;;;;;5099596;28;20050;-64
2021/12/15 12:17:48;;;;;;;6.22;4.18;;;13.40;99.70;;;;;;5092457;28;20130;-65
2021/12/15 12:20:19;;;;;;;6.18;4.05;;;13.40;99.40;;;;;;5109092;28;20044;-68
2021/12/15 12:22:47;;;;;;;8.68;4.40;;;13.40;99.90;;;;;;5059894;28;20048;-64
2021/12/15 12:25:20;;;;;;;8.70;4.53;;;13.40;99.20;;;;;;5106103;28;20044;-66
2021/12/15 12:27:48;;;;;;;9.85;4.88;;;13.40;99.80;;;;;;5108946;28;20050;-66
2021/12/15 12:30:20;;;;;;;9.20;5.28;;;13.40;99.60;;;;;;5108869;28;20142;-67
2021/12/15 12:32:47;;;;;;;8.13;4.75;;;13.40;99.90;;;;;;5074414;28;20131;-64
2021/12/15 12:35:19;;;;;;;16.65;5.15;;;13.40;99.90;;;;;;5088300;28;20048;-64
2021/12/15 12:37:54;;;;;;;6.68;4.30;;;13.40;99.90;;;;;;5087630;28;20055;-64
2021/12/15 12:40:26;;;;;;;9.55;4.80;;;13.40;99.90;;;;;;5104739;28;20163;-65
2021/12/15 12:42:53;;;;;;;8.93;4.75;;;13.50;99.60;;;;;;5088320;28;20090;-64
2021/12/15 12:45:36;;;;;;;12.60;4.60;;;13.50;99.40;;;;;;5100652;28;20063;-64
2021/12/15 12:59:28;;;;;;;7.45;4.70;;;13.50;99.40;;;;;;5092187;28;20051;-64
2021/12/15 13:01:55;;;;;;;18.40;15.02;;;13.50;99.60;;;;;;5108778;28;20085;-63
2021/12/15 13:04:34;;;;;;;51.05;39.17;;;13.50;99.60;;;;;;5087769;28;20076;-64
2021/12/15 13:07:01;;;;;;;11.18;6.65;;;13.50;99.20;;;;;;5073136;28;20109;-65
2021/12/15 13:09:28;;;;;;;13.32;5.95;;;13.50;99.30;;;;;;5078764;28;20058;-68
2021/12/15 13:11:57;;;;;;;9.38;4.18;;;13.50;99.90;;;;;;5091107;28;20055;-67
2021/12/15 13:14:36;;;;;;;8.45;5.22;;;13.50;99.90;;;;;;5108259;28;20071;-66
2021/12/15 13:17:13;;;;;;;12.20;5.38;;;13.50;98.50;;;;;;5090472;28;20047;-66
2021/12/15 13:19:42;;;;;;;9.30;5.30;;;13.50;99.40;;;;;;5107109;28;20048;-66
2021/12/15 13:22:42;;;;;;;9.40;4.95;;;13.50;99.90;;;;;;5108306;28;20508;-66
2021/12/15 13:28:47;;;;;;;10.88;4.95;;;13.50;99.30;;;;;;5108756;28;20119;-66
2021/12/15 13:31:27;;;;;;;8.07;4.40;;;13.50;99.70;;;;;;5107572;28;20451;-65
2021/12/15 13:33:59;;;;;;;9.23;5.45;;;13.50;98.90;;;;;;5091919;28;20051;-65
2021/12/15 13:36:30;;;;;;;9.32;4.65;;;13.50;98.80;;;;;;5091884;28;20478;-66
2021/12/15 13:39:03;;;;;;;10.25;5.53;;;13.50;99.70;;;;;;5094822;28;20047;-65
2021/12/15 13:44:36;;;;;;;8.10;5.00;;;13.40;99.00;;;;;;5111804;28;20089;-66
2021/12/15 13:47:15;;;;;;;10.77;5.40;;;13.50;99.90;;;;;;5113094;28;20401;-65
2021/12/15 13:49:46;;;;;;;10.55;5.80;;;13.50;99.90;;;;;;5091330;28;20435;-65
2021/12/15 13:52:44;;;;;;;8.75;5.38;;;13.50;99.80;;;;;;5091063;28;20055;-66
2021/12/15 13:55:25;;;;;;;11.95;5.07;;;13.50;99.90;;;;;;5074339;28;20110;-66
2021/12/15 13:58:10;;;;;;;10.15;5.57;;;13.40;99.90;;;;;;5093505;28;20040;-65
2021/12/15 14:01:00;;;;;;;11.77;5.15;;;13.40;99.90;;;;;;5111112;28;20055;-66
2021/12/15 14:03:48;;;;;;;9.10;7.05;;;13.40;99.60;;;;;;5093894;28;20048;-65
2021/12/15 14:06:18;;;;;;;111.53;79.32;;;13.40;98.20;;;;;;5102624;28;20475;-65
2021/12/15 14:08:47;;;;;;;11.63;6.95;;;13.40;97.80;;;;;;5110397;28;20100;-63
2021/12/15 14:11:22;;;;;;;7.45;4.32;;;13.40;98.10;;;;;;5093898;28;20055;-63
2021/12/15 14:14:02;;;;;;;5.57;4.25;;;13.40;96.90;;;;;;5110242;28;20063;-63
2021/12/15 14:16:30;;;;;;;6.10;3.80;;;13.40;96.70;;;;;;5104551;28;20052;-64
2021/12/15 14:18:58;;;;;;;7.25;3.67;;;13.40;97.30;;;;;;5111868;28;20164;-63
2021/12/15 14:21:25;;;;;;;9.00;4.63;;;13.30;97.20;;;;;;5073616;28;20481;-63
2021/12/15 14:23:55;;;;;;;6.75;4.20;;;13.30;97.70;;;;;;5091660;28;20433;-63
2021/12/15 14:26:39;;;;;;;12.63;5.18;;;13.40;97.50;;;;;;5107385;28;20137;-63
2021/12/15 14:29:12;;;;;;;8.00;4.30;;;13.30;97.50;;;;;;5093316;28;20056;-63
2021/12/15 14:31:40;;;;;;;8.93;4.50;;;13.30;97.80;;;;;;5077185;28;20555;-64
2021/12/15 14:34:15;;;;;;;8.68;3.53;;;13.30;96.40;;;;;;5110664;28;20086;-65
2021/12/15 14:36:47;;;;;;;5.45;3.30;;;13.30;95.00;;;;;;5107957;28;20035;-64
2021/12/15 14:39:31;;;;;;;6.20;3.95;;;13.30;94.00;;;;;;5110704;28;20117;-63
2021/12/15 14:42:00;;;;;;;6.05;3.50;;;13.20;94.20;;;;;;5104394;28;20147;-63
2021/12/15 14:44:30;;;;;;;6.28;4.30;;;13.20;93.70;;;;;;5090388;28;20132;-64